createdAt,value
2018-06-05T00:00:35.893Z,18.00
2018-06-05T00:03:05.215Z,17.90
2018-06-05T00:05:34.213Z,17.80
2018-06-05T00:08:04.253Z,17.80
2018-06-05T00:10:33.271Z,17.80
2018-06-05T00:13:02.269Z,17.90
2018-06-05T00:15:31.251Z,17.80
2018-06-05T00:18:00.248Z,17.70
2018-06-05T00:20:29.282Z,17.70
2018-06-05T00:23:20.672Z,17.70
2018-06-05T00:25:49.700Z,17.70
2018-06-05T00:28:18.689Z,17.70
2018-06-05T00:30:47.688Z,17.70
2018-06-05T00:33:16.692Z,17.80
2018-06-05T00:35:45.672Z,17.70
2018-06-05T00:38:14.662Z,17.80
2018-06-05T00:40:43.650Z,17.80
2018-06-05T00:43:12.648Z,17.80
2018-06-05T00:45:50.243Z,17.80
2018-06-05T00:48:19.206Z,17.60
2018-06-05T00:50:48.233Z,17.60
2018-06-05T00:53:17.331Z,17.60
2018-06-05T00:55:46.380Z,17.70
2018-06-05T00:58:15.387Z,17.60
2018-06-05T01:00:44.423Z,17.60
2018-06-05T01:03:13.385Z,17.50
2018-06-05T01:05:42.386Z,17.50
2018-06-05T01:08:11.384Z,17.40
2018-06-05T01:10:40.394Z,17.50
2018-06-05T01:13:09.423Z,17.50
2018-06-05T01:15:38.415Z,17.60
2018-06-05T01:18:07.425Z,17.60
2018-06-05T01:20:36.455Z,17.60
2018-06-05T01:23:05.609Z,17.50
2018-06-05T01:25:34.657Z,17.40
2018-06-05T01:28:03.732Z,17.40
2018-06-05T01:30:32.761Z,17.40
2018-06-05T01:33:01.777Z,17.50
2018-06-05T01:35:30.799Z,17.50
2018-06-05T01:37:59.772Z,17.50
2018-06-05T01:40:28.803Z,17.40
2018-06-05T01:42:57.829Z,17.30
2018-06-05T01:45:26.810Z,17.30
2018-06-05T01:47:55.789Z,17.30
2018-06-05T01:50:24.793Z,17.40
2018-06-05T01:52:53.801Z,17.40
2018-06-05T01:55:22.820Z,17.30
2018-06-05T01:57:51.819Z,17.40
2018-06-05T02:00:20.845Z,17.30
2018-06-05T02:02:49.853Z,17.30
2018-06-05T02:05:18.865Z,17.20
2018-06-05T02:07:47.863Z,17.30
2018-06-05T02:10:16.957Z,17.30
2018-06-05T02:12:45.943Z,17.30
2018-06-05T02:15:14.929Z,17.30
2018-06-05T02:17:43.941Z,17.20
2018-06-05T02:20:12.947Z,17.20
2018-06-05T02:22:41.981Z,17.30
2018-06-05T02:25:10.979Z,17.30
2018-06-05T02:27:39.965Z,17.20
2018-06-05T02:30:08.985Z,17.10
2018-06-05T02:32:38.099Z,17.20
2018-06-05T02:35:07.081Z,17.10
2018-06-05T02:37:36.065Z,17.10
2018-06-05T02:42:33.679Z,17.00
2018-06-05T02:45:02.703Z,17.10
2018-06-05T02:47:31.833Z,17.10
2018-06-05T02:50:00.839Z,17.10
2018-06-05T02:52:29.868Z,17.10
2018-06-05T02:54:58.865Z,17.10
2018-06-05T02:57:27.841Z,17.20
2018-06-05T02:59:56.856Z,17.20
2018-06-05T03:02:25.912Z,17.10
2018-06-05T03:04:54.885Z,17.10
2018-06-05T03:07:23.857Z,17.20
2018-06-05T03:09:52.957Z,17.20
2018-06-05T03:12:22.099Z,17.20
2018-06-05T03:14:51.065Z,17.10
2018-06-05T03:19:48.728Z,17.20
2018-06-05T03:22:17.744Z,17.20
2018-06-05T03:24:46.739Z,17.20
2018-06-05T03:27:15.728Z,17.20
2018-06-05T03:29:44.917Z,17.20
2018-06-05T03:32:14.651Z,17.30
2018-06-05T03:34:43.649Z,17.30
2018-06-05T03:37:12.717Z,17.20
2018-06-05T03:42:10.580Z,17.20
2018-06-05T03:44:39.616Z,17.20
2018-06-05T03:47:08.577Z,17.20
2018-06-05T03:49:42.075Z,17.20
2018-06-05T03:52:11.251Z,17.20
2018-06-05T03:54:40.573Z,17.20
2018-06-05T03:57:09.591Z,17.20
2018-06-05T03:59:38.681Z,17.20
2018-06-05T04:02:07.616Z,17.20
2018-06-05T04:04:36.638Z,17.30
2018-06-05T04:07:05.598Z,17.20
2018-06-05T04:09:34.579Z,17.10
2018-06-05T04:12:03.604Z,17.10
2018-06-05T04:14:34.009Z,17.10
2018-06-05T04:17:03.057Z,17.20
2018-06-05T04:19:32.172Z,17.20
2018-06-05T04:22:01.088Z,17.20
2018-06-05T04:24:30.094Z,17.20
2018-06-05T04:26:59.030Z,17.20
2018-06-05T04:29:28.001Z,17.20
2018-06-05T04:31:56.940Z,17.20
2018-06-05T04:34:25.932Z,17.20
2018-06-05T04:36:54.877Z,17.10
2018-06-05T04:39:23.840Z,17.10
2018-06-05T04:41:52.776Z,17.10
2018-06-05T04:44:21.823Z,17.10
2018-06-05T04:46:50.768Z,17.10
2018-06-05T04:49:19.697Z,17.10
2018-06-05T04:51:48.776Z,17.10
2018-06-05T04:54:17.738Z,17.20
2018-06-05T04:56:46.676Z,17.20
2018-06-05T04:59:15.661Z,17.20
2018-06-05T05:01:44.617Z,17.20
2018-06-05T05:04:13.741Z,17.10
2018-06-05T05:06:42.739Z,17.10
2018-06-05T05:09:11.710Z,17.10
2018-06-05T05:11:40.657Z,17.10
2018-06-05T05:14:09.657Z,17.10
2018-06-05T05:16:38.928Z,17.10
2018-06-05T05:19:07.963Z,17.20
2018-06-05T05:21:36.954Z,17.10
2018-06-05T05:24:06.016Z,17.10
2018-06-05T05:26:34.997Z,17.10
2018-06-05T05:29:04.014Z,17.20
2018-06-05T05:31:33.049Z,17.20
2018-06-05T05:34:02.070Z,17.20
2018-06-05T05:36:31.078Z,17.20
2018-06-05T05:39:00.081Z,17.30
2018-06-05T05:41:29.103Z,17.20
2018-06-05T05:43:58.245Z,17.30
2018-06-05T05:46:27.203Z,17.30
2018-06-05T05:48:56.197Z,17.40
2018-06-05T05:51:25.205Z,17.40
2018-06-05T05:53:54.213Z,17.40
2018-06-05T05:56:23.241Z,17.50
2018-06-05T05:58:59.883Z,17.60
2018-06-05T06:01:28.939Z,17.70
2018-06-05T06:03:58.661Z,17.70
2018-06-05T06:06:27.683Z,17.80
2018-06-05T06:08:56.675Z,17.80
2018-06-05T06:11:25.698Z,17.80
2018-06-05T06:13:54.868Z,17.80
2018-06-05T06:16:23.905Z,17.90
2018-06-05T06:18:53.009Z,17.80
2018-06-05T06:21:22.009Z,17.70
2018-06-05T06:23:51.033Z,17.70
2018-06-05T06:26:20.141Z,17.70
2018-06-05T06:28:49.237Z,17.70
2018-06-05T06:31:18.331Z,17.80
2018-06-05T06:33:47.352Z,17.70
2018-06-05T06:36:16.360Z,17.80
2018-06-05T06:38:45.380Z,17.90
2018-06-05T06:41:14.393Z,17.80
2018-06-05T06:43:43.430Z,17.90
2018-06-05T06:46:12.484Z,17.90
2018-06-05T06:48:41.571Z,17.90
2018-06-05T06:51:10.469Z,18.00
2018-06-05T06:53:39.492Z,18.00
2018-06-05T06:56:08.563Z,18.10
2018-06-05T06:58:37.581Z,18.10
2018-06-05T07:01:06.812Z,18.20
2018-06-05T07:03:35.863Z,18.20
2018-06-05T07:06:04.875Z,18.20
2018-06-05T07:08:33.881Z,18.20
2018-06-05T07:11:02.901Z,18.20
2018-06-05T07:13:31.921Z,18.20
2018-06-05T07:16:00.956Z,18.20
2018-06-05T07:18:29.975Z,18.20
2018-06-05T07:20:59.003Z,18.20
2018-06-05T07:23:28.029Z,18.10
2018-06-05T07:25:57.057Z,18.00
2018-06-05T07:28:26.037Z,18.00
2018-06-05T07:30:55.007Z,18.10
2018-06-05T07:33:24.013Z,18.20
2018-06-05T07:35:53.079Z,18.20
2018-06-05T07:38:22.048Z,18.20
2018-06-05T07:40:51.001Z,18.20
2018-06-05T07:43:20.017Z,18.20
2018-06-05T07:45:49.065Z,18.20
2018-06-05T07:48:18.069Z,18.20
2018-06-05T07:50:47.054Z,18.30
2018-06-05T07:53:16.069Z,18.30
2018-06-05T07:55:45.132Z,18.30
2018-06-05T07:58:14.139Z,18.40
2018-06-05T08:00:43.194Z,18.40
2018-06-05T08:03:12.149Z,18.40
2018-06-05T08:05:41.221Z,18.40
2018-06-05T08:08:10.213Z,18.50
2018-06-05T08:10:39.221Z,18.50
2018-06-05T08:13:08.261Z,18.60
2018-06-05T08:15:37.310Z,18.70
2018-06-05T08:18:06.327Z,18.70
2018-06-05T08:20:35.344Z,18.70
2018-06-05T08:23:04.326Z,18.70
2018-06-05T08:25:33.350Z,18.70
2018-06-05T08:28:02.353Z,18.90
2018-06-05T08:30:31.345Z,18.90
2018-06-05T08:33:00.343Z,19.00
2018-06-05T08:35:29.557Z,18.90
2018-06-05T08:37:58.583Z,19.00
2018-06-05T08:40:27.603Z,19.00
2018-06-05T08:42:56.624Z,19.00
2018-06-05T08:45:25.615Z,19.10
2018-06-05T08:47:54.636Z,19.10
2018-06-05T08:50:23.632Z,19.20
2018-06-05T08:52:52.764Z,19.30
2018-06-05T08:55:21.842Z,19.30
2018-06-05T08:57:50.958Z,19.40
2018-06-05T09:00:20.006Z,19.30
2018-06-05T09:02:49.024Z,19.40
2018-06-05T09:05:18.055Z,19.40
2018-06-05T09:07:47.082Z,19.50
2018-06-05T09:10:16.075Z,19.50
2018-06-05T09:12:46.119Z,19.40
2018-06-05T09:15:15.230Z,19.50
2018-06-05T09:20:12.912Z,19.50
2018-06-05T09:25:10.644Z,19.20
2018-06-05T09:27:39.698Z,19.20
2018-06-05T09:30:10.620Z,19.30
2018-06-05T09:32:39.602Z,19.40
2018-06-05T09:35:08.680Z,19.50
2018-06-05T09:37:38.556Z,19.60
2018-06-05T09:40:07.647Z,19.70
2018-06-05T09:42:36.724Z,19.70
2018-06-05T09:45:05.744Z,19.70
2018-06-05T09:47:34.767Z,19.70
2018-06-05T09:50:03.786Z,19.70
2018-06-05T09:52:32.788Z,19.80
2018-06-05T09:57:30.617Z,19.80
2018-06-05T09:59:59.598Z,19.80
2018-06-05T10:02:28.674Z,19.80
2018-06-05T10:04:57.683Z,19.80
2018-06-05T10:07:26.741Z,19.80
2018-06-05T10:09:55.798Z,19.90
2018-06-05T10:12:24.869Z,19.70
2018-06-05T10:14:53.896Z,19.80
2018-06-05T10:17:22.898Z,19.90
2018-06-05T10:19:52.462Z,19.90
2018-06-05T10:22:21.449Z,20.00
2018-06-05T10:24:50.495Z,19.80
2018-06-05T10:27:19.554Z,19.80
2018-06-05T10:29:48.553Z,19.80
2018-06-05T10:32:17.634Z,19.80
2018-06-05T10:34:46.773Z,19.70
2018-06-05T10:37:15.821Z,19.70
2018-06-05T10:39:44.825Z,19.70
2018-06-05T10:42:13.789Z,19.80
2018-06-05T10:44:42.809Z,19.80
2018-06-05T10:47:12.405Z,19.80
2018-06-05T10:49:41.511Z,19.90
2018-06-05T10:52:10.497Z,19.90
2018-06-05T10:54:39.549Z,20.00
2018-06-05T10:57:08.553Z,20.00
2018-06-05T10:59:37.509Z,20.10
2018-06-05T11:02:06.568Z,20.20
2018-06-05T11:04:35.581Z,20.20
2018-06-05T11:07:04.676Z,20.20
2018-06-05T11:09:33.857Z,20.10
2018-06-05T11:12:02.823Z,19.90
2018-06-05T11:14:31.843Z,20.00
2018-06-05T11:17:00.871Z,19.90
2018-06-05T11:19:29.876Z,19.90
2018-06-05T11:21:58.853Z,19.90
2018-06-05T11:24:27.853Z,19.80
2018-06-05T11:26:56.864Z,19.70
2018-06-05T11:29:25.888Z,19.80
2018-06-05T11:31:54.885Z,19.80
2018-06-05T11:34:23.992Z,19.80
2018-06-05T11:36:53.027Z,19.70
2018-06-05T11:39:22.089Z,19.80
2018-06-05T11:41:51.099Z,19.80
2018-06-05T11:44:20.085Z,19.80
2018-06-05T11:46:49.166Z,19.90
2018-06-05T11:49:18.205Z,19.90
2018-06-05T11:51:47.225Z,19.90
2018-06-05T11:54:16.256Z,19.80
2018-06-05T11:56:45.204Z,19.70
2018-06-05T11:59:14.256Z,19.70
2018-06-05T12:01:43.445Z,19.60
2018-06-05T12:04:12.375Z,19.60
2018-06-05T12:06:41.371Z,19.70
2018-06-05T12:09:10.614Z,19.70
2018-06-05T12:11:39.590Z,19.50
2018-06-05T12:14:08.554Z,19.50
2018-06-05T12:16:37.590Z,19.50
2018-06-05T12:19:06.644Z,19.60
2018-06-05T12:21:35.616Z,19.60
2018-06-05T12:24:04.597Z,19.80
2018-06-05T12:26:33.650Z,19.80
2018-06-05T12:29:02.671Z,19.80
2018-06-05T12:31:31.703Z,19.70
2018-06-05T12:34:01.257Z,19.80
2018-06-05T12:36:30.263Z,19.80
2018-06-05T12:38:59.276Z,19.70
2018-06-05T12:41:28.268Z,19.50
2018-06-05T12:43:57.258Z,19.30
2018-06-05T12:46:26.241Z,19.30
2018-06-05T12:48:55.270Z,19.40
2018-06-05T12:51:24.258Z,19.50
2018-06-05T12:53:53.215Z,19.70
2018-06-05T12:56:22.230Z,19.70
2018-06-05T12:58:51.238Z,19.80
2018-06-05T13:01:20.323Z,19.90
2018-06-05T13:03:49.282Z,19.80
2018-06-05T13:06:18.313Z,19.70
2018-06-05T13:08:47.341Z,19.70
2018-06-05T13:11:16.411Z,19.70
2018-06-05T13:13:45.467Z,19.70
2018-06-05T13:16:14.489Z,19.70
2018-06-05T13:18:43.521Z,19.60
2018-06-05T13:21:12.511Z,19.60
2018-06-05T13:23:41.504Z,19.70
2018-06-05T13:26:10.603Z,19.80
2018-06-05T13:28:40.401Z,19.70
2018-06-05T13:31:09.463Z,19.70
2018-06-05T13:33:38.463Z,19.80
2018-06-05T13:36:07.477Z,19.80
2018-06-05T13:38:36.526Z,19.80
2018-06-05T13:41:05.601Z,19.80
2018-06-05T13:43:34.637Z,19.90
2018-06-05T13:46:03.608Z,19.80
2018-06-05T13:48:32.583Z,19.80
2018-06-05T13:51:01.619Z,20.00
2018-06-05T13:53:30.742Z,20.00
2018-06-05T13:56:00.475Z,20.00
2018-06-05T13:58:29.597Z,20.00
2018-06-05T14:00:58.647Z,20.10
2018-06-05T14:03:27.749Z,20.20
2018-06-05T14:05:56.717Z,20.20
2018-06-05T14:08:25.760Z,20.20
2018-06-05T14:10:54.863Z,20.30
2018-06-05T14:13:23.859Z,20.40
2018-06-05T14:15:52.878Z,20.50
2018-06-05T14:18:21.937Z,20.60
2018-06-05T14:20:51.015Z,20.80
2018-06-05T14:23:20.033Z,20.90
2018-06-05T14:25:49.039Z,21.10
2018-06-05T14:28:18.083Z,21.20
2018-06-05T14:30:47.075Z,21.30
2018-06-05T14:33:16.045Z,21.50
2018-06-05T14:35:45.041Z,21.60
2018-06-05T14:38:14.049Z,21.70
2018-06-05T14:40:43.049Z,21.90
2018-06-05T14:43:12.053Z,22.00
2018-06-05T14:45:41.074Z,22.00
2018-06-05T14:48:10.093Z,22.00
2018-06-05T14:50:39.204Z,22.00
2018-06-05T14:53:08.263Z,22.10
2018-06-05T14:55:37.273Z,22.10
2018-06-05T14:58:06.995Z,22.20
2018-06-05T15:00:36.107Z,22.10
2018-06-05T15:03:05.225Z,22.10
2018-06-05T15:05:34.249Z,22.10
2018-06-05T15:08:03.216Z,22.20
2018-06-05T15:10:32.317Z,22.20
2018-06-05T15:13:01.372Z,22.30
2018-06-05T15:15:30.327Z,22.40
2018-06-05T15:17:59.465Z,22.30
2018-06-05T15:20:28.515Z,22.40
2018-06-05T15:22:57.487Z,22.50
2018-06-05T15:25:26.752Z,22.50
2018-06-05T15:27:55.760Z,22.50
2018-06-05T15:30:24.772Z,22.50
2018-06-05T15:32:53.789Z,22.50
2018-06-05T15:35:22.841Z,22.50
2018-06-05T15:37:51.933Z,22.30
2018-06-05T15:40:20.988Z,22.30
2018-06-05T15:42:49.958Z,22.00
2018-06-05T15:45:18.974Z,22.00
2018-06-05T15:47:48.002Z,22.00
2018-06-05T15:50:17.047Z,22.00
2018-06-05T15:52:46.085Z,21.90
2018-06-05T15:55:15.224Z,22.00
2018-06-05T15:57:44.230Z,21.70
2018-06-05T16:00:13.225Z,21.70
2018-06-05T16:02:42.318Z,21.70
2018-06-05T16:05:11.297Z,21.80
2018-06-05T16:07:40.368Z,21.90
2018-06-05T16:10:09.434Z,22.00
2018-06-05T16:12:38.496Z,22.00
2018-06-05T16:15:07.541Z,22.10
2018-06-05T16:17:36.586Z,22.10
2018-06-05T16:20:05.560Z,22.00
2018-06-05T16:22:34.592Z,22.00
2018-06-05T16:25:03.774Z,22.00
2018-06-05T16:27:32.757Z,22.10
2018-06-05T16:30:01.736Z,22.10
2018-06-05T16:32:30.778Z,22.10
2018-06-05T16:34:59.778Z,22.10
2018-06-05T16:37:28.770Z,22.10
2018-06-05T16:39:57.834Z,22.10
2018-06-05T16:42:26.884Z,22.10
2018-06-05T16:44:55.888Z,22.20
2018-06-05T16:47:24.956Z,22.20
2018-06-05T16:49:53.914Z,22.10
2018-06-05T16:52:22.964Z,22.20
2018-06-05T16:54:51.953Z,22.00
2018-06-05T16:57:20.930Z,21.70
2018-06-05T16:59:49.972Z,21.80
2018-06-05T17:02:18.981Z,21.90
2018-06-05T17:04:48.012Z,21.90
2018-06-05T17:07:16.967Z,22.00
2018-06-05T17:09:45.982Z,21.90
2018-06-05T17:12:15.034Z,21.90
2018-06-05T17:14:44.001Z,22.00
2018-06-05T17:17:13.139Z,22.00
2018-06-05T17:19:42.135Z,22.00
2018-06-05T17:22:11.165Z,22.00
2018-06-05T17:24:40.163Z,22.10
2018-06-05T17:27:09.206Z,22.20
2018-06-05T17:29:38.188Z,22.20
2018-06-05T17:34:35.875Z,22.10
2018-06-05T17:37:04.851Z,22.10
2018-06-05T17:39:33.879Z,22.20
2018-06-05T17:42:02.914Z,22.10
2018-06-05T17:44:31.897Z,22.20
2018-06-05T17:47:00.935Z,22.20
2018-06-05T17:49:30.014Z,22.30
2018-06-05T17:51:59.021Z,22.20
2018-06-05T17:54:28.001Z,22.20
2018-06-05T17:56:57.021Z,22.20
2018-06-05T17:59:26.005Z,22.10
2018-06-05T18:01:55.139Z,22.00
2018-06-05T18:04:24.513Z,22.10
2018-06-05T18:06:53.485Z,22.20
2018-06-05T18:09:22.468Z,22.20
2018-06-05T18:11:51.480Z,22.20
2018-06-05T18:14:20.513Z,22.20
2018-06-05T18:16:49.553Z,22.10
2018-06-05T18:19:18.589Z,22.10
2018-06-05T18:21:47.635Z,22.10
2018-06-05T18:24:16.692Z,22.10
2018-06-05T18:26:45.689Z,22.20
2018-06-05T18:29:14.713Z,22.20
2018-06-05T18:31:43.724Z,22.10
2018-06-05T18:34:12.824Z,22.00
2018-06-05T18:36:41.810Z,21.90
2018-06-05T18:39:10.824Z,22.00
2018-06-05T18:41:39.946Z,22.00
2018-06-05T18:44:08.984Z,22.00
2018-06-05T18:46:38.022Z,22.00
2018-06-05T18:49:07.008Z,21.80
2018-06-05T18:51:36.051Z,21.80
2018-06-05T18:54:05.062Z,21.70
2018-06-05T18:56:34.034Z,21.70
2018-06-05T18:59:03.054Z,21.70
2018-06-05T19:01:32.047Z,21.70
2018-06-05T19:04:01.532Z,21.70
2018-06-05T19:06:30.606Z,21.60
2018-06-05T19:08:59.602Z,21.60
2018-06-05T19:11:28.623Z,21.50
2018-06-05T19:13:57.630Z,21.40
2018-06-05T19:18:55.241Z,21.30
2018-06-05T19:21:24.235Z,21.20
2018-06-05T19:23:53.313Z,21.10
2018-06-05T19:28:50.901Z,20.90
2018-06-05T19:31:19.995Z,20.80
2018-06-05T19:33:48.998Z,20.90
2018-06-05T19:36:17.989Z,20.70
2018-06-05T19:38:47.152Z,20.70
2018-06-05T19:41:16.177Z,20.60
2018-06-05T19:43:45.173Z,20.60
2018-06-05T19:46:14.186Z,20.50
2018-06-05T19:48:44.146Z,20.30
2018-06-05T19:51:13.090Z,20.20
2018-06-05T19:53:42.145Z,20.20
2018-06-05T19:56:11.128Z,20.20
2018-06-05T19:58:40.119Z,20.10
2018-06-05T20:01:09.251Z,20.00
2018-06-05T20:03:38.278Z,20.00
2018-06-05T20:06:07.313Z,19.90
2018-06-05T20:08:36.325Z,19.90
2018-06-05T20:11:05.325Z,19.90
2018-06-05T20:13:34.344Z,19.80
2018-06-05T20:16:03.333Z,19.80
2018-06-05T20:18:32.325Z,19.70
2018-06-05T20:21:01.325Z,19.70
2018-06-05T20:23:30.445Z,19.60
2018-06-05T20:25:59.447Z,19.60
2018-06-05T20:28:28.750Z,19.50
2018-06-05T20:30:57.763Z,19.60
2018-06-05T20:35:55.444Z,19.50
2018-06-05T20:38:24.425Z,19.40
2018-06-05T20:40:53.407Z,19.30
2018-06-05T20:43:22.445Z,19.30
2018-06-05T20:45:51.539Z,19.30
2018-06-05T20:48:20.521Z,19.20
2018-06-05T20:50:49.509Z,19.20
2018-06-05T20:53:18.522Z,19.20
2018-06-05T20:55:47.554Z,19.10
2018-06-05T20:58:16.529Z,19.00
2018-06-05T21:00:45.587Z,19.00
2018-06-05T21:03:14.551Z,19.00
2018-06-05T21:05:43.620Z,18.90
2018-06-05T21:08:12.645Z,18.90
2018-06-05T21:10:41.620Z,18.90
2018-06-05T21:13:10.585Z,18.80
2018-06-05T21:15:39.601Z,18.70
2018-06-05T21:18:08.628Z,18.70
2018-06-05T21:20:37.750Z,18.60
2018-06-05T21:23:06.737Z,18.60
2018-06-05T21:25:35.818Z,18.50
2018-06-05T21:28:05.093Z,18.50
2018-06-05T21:30:34.065Z,18.40
2018-06-05T21:33:03.066Z,18.40
2018-06-05T21:35:32.061Z,18.40
2018-06-05T21:38:01.043Z,18.40
2018-06-05T21:40:30.007Z,18.20
2018-06-05T21:42:58.991Z,18.20
2018-06-05T21:45:28.009Z,18.10
2018-06-05T21:47:56.980Z,18.10
2018-06-05T21:50:25.945Z,18.10
2018-06-05T21:55:23.821Z,18.00
2018-06-05T21:57:52.802Z,18.00
2018-06-05T22:00:23.378Z,18.00
2018-06-05T22:02:52.354Z,17.90
2018-06-05T22:05:21.407Z,17.90
2018-06-05T22:07:50.387Z,17.90
2018-06-05T22:10:19.384Z,17.80
2018-06-05T22:12:48.444Z,17.80
2018-06-05T22:15:17.442Z,17.80
2018-06-05T22:17:46.437Z,17.70
2018-06-05T22:20:15.424Z,17.60
2018-06-05T22:22:44.439Z,17.60
2018-06-05T22:25:13.458Z,17.40
2018-06-05T22:27:42.437Z,17.50
2018-06-05T22:30:11.458Z,17.40
2018-06-05T22:32:40.498Z,17.40
2018-06-05T22:35:09.498Z,17.40
2018-06-05T22:37:38.478Z,17.40
2018-06-05T22:40:07.464Z,17.30
2018-06-05T22:42:36.520Z,17.30
2018-06-05T22:45:05.518Z,17.30
2018-06-05T22:47:34.496Z,17.20
2018-06-05T22:50:03.546Z,17.20
2018-06-05T22:52:32.518Z,17.20
2018-06-05T22:55:01.540Z,17.10
2018-06-05T22:57:30.556Z,17.00
2018-06-05T22:59:59.540Z,17.00
2018-06-05T23:02:28.536Z,17.00
2018-06-05T23:04:57.528Z,17.00
2018-06-05T23:07:26.776Z,16.90
2018-06-05T23:09:55.752Z,16.90
2018-06-05T23:12:24.726Z,16.80
2018-06-05T23:14:53.784Z,16.80
2018-06-05T23:17:22.834Z,16.70
2018-06-05T23:19:51.799Z,16.70
2018-06-05T23:22:20.872Z,16.70
2018-06-05T23:24:49.853Z,16.70
2018-06-05T23:27:18.876Z,16.60
2018-06-05T23:29:47.852Z,16.60
2018-06-05T23:32:16.871Z,16.60
2018-06-05T23:34:45.900Z,16.60
2018-06-05T23:37:14.911Z,16.50
2018-06-05T23:39:43.932Z,16.50
2018-06-05T23:42:12.925Z,16.40
2018-06-05T23:44:41.929Z,16.40
2018-06-05T23:47:10.930Z,16.50
2018-06-05T23:49:39.913Z,16.40
2018-06-05T23:52:08.921Z,16.30
2018-06-05T23:54:37.909Z,16.30
2018-06-05T23:57:06.953Z,16.30
